首页
METAR-TAF:

METAR-TAF

机场 :

Air_Force_Base

Plattsburgh, 紐約州, 美国

纬度: 44-39N, 经度: 073-28W, 海拔: 72米

当前天气观测

该预报发布于40分钟前的04:53 UTC
风速3节,风向
温度 -9°C
湿度 73%
气压 1013 hPa
能見度: 16.1公里
天空无云

METAR: KPBG 190453Z AUTO 35003KT 10SM CLR M09/M13 A2991 RMK AO2 SLP132 T10941128 410111100

时间: 00:33 (05:33 UTC)

预报

该预报发布于6小时和13分钟前的23:20 UTC
预报有效从19日的 00点(UTC)到 19日的 24点(UTC)
风速7节,风向西转西北
能見度: 10公里
散云层高于10000英尺
从 19日的 1000点(UTC)
风速节,风向
能見度: 10公里
多云层高于10000英尺
从 19日的 1700点(UTC)
风速4节,风向多变
能見度: 10公里
多云层高于4500英尺
从 19日的 2100点(UTC)
风速6节,风向东南
能見度: 10公里
阴天层高于3500英尺
附近有阵雨

TAF: KPBG 182320Z 1900/1924 30007KT P6SM SCT100 FM191000 00000KT P6SM BKN100 FM191700 VRB04KT P6SM BKN045 FM192100 14006KT P6SM VCSH OVC035

超过4000个机场的气象观测和天气预报(METAR&TAF报告)。

可查询的气象台以黄色和红色小点在地图上表示。

将鼠标移到小点上方,可查看气象台名称。

然后点击查看天气观测和预报。

如需切换地图:点击带黑十字的绿色按钮放大地图;点击带横线的绿色按钮缩小地图;或者点击绿色箭头查看邻近地区的地图。


METAR-TAF: